sensor_id;sensor_type;location;lat;lon;timestamp;pressure;altitude;pressure_sealevel;temperature;humidity
60240;BME280;46102;39.012;-7.064;2022-10-17T00:00:20;98467.94;;;18.37;71.74
60240;BME280;46102;39.012;-7.064;2022-10-17T00:02:21;98466.28;;;18.33;71.71
60240;BME280;46102;39.012;-7.064;2022-10-17T00:04:22;98467.03;;;18.29;71.81
60240;BME280;46102;39.012;-7.064;2022-10-17T00:06:23;98464.63;;;18.28;71.92
60240;BME280;46102;39.012;-7.064;2022-10-17T00:08:24;98453.91;;;18.26;71.93
60240;BME280;46102;39.012;-7.064;2022-10-17T00:10:25;98453.09;;;18.26;71.62
60240;BME280;46102;39.012;-7.064;2022-10-17T00:12:25;98461.41;;;18.26;71.25
60240;BME280;46102;39.012;-7.064;2022-10-17T00:14:26;98457.91;;;18.29;70.90
60240;BME280;46102;39.012;-7.064;2022-10-17T00:16:30;98457.91;;;18.29;70.75
60240;BME280;46102;39.012;-7.064;2022-10-17T00:18:31;98459.81;;;18.25;70.86
60240;BME280;46102;39.012;-7.064;2022-10-17T00:20:34;98461.81;;;18.24;71.06
60240;BME280;46102;39.012;-7.064;2022-10-17T00:22:35;98460.19;;;18.23;71.13
60240;BME280;46102;39.012;-7.064;2022-10-17T00:24:36;98453.84;;;18.23;71.35
60240;BME280;46102;39.012;-7.064;2022-10-17T00:26:36;98456.63;;;18.23;71.41
60240;BME280;46102;39.012;-7.064;2022-10-17T00:28:37;98456.25;;;18.24;71.31
60240;BME280;46102;39.012;-7.064;2022-10-17T00:30:39;98457.84;;;18.25;71.20
60240;BME280;46102;39.012;-7.064;2022-10-17T00:32:40;98455.50;;;18.27;70.81
60240;BME280;46102;39.012;-7.064;2022-10-17T00:34:41;98457.06;;;18.25;70.30
60240;BME280;46102;39.012;-7.064;2022-10-17T00:36:42;98452.28;;;18.25;70.12
60240;BME280;46102;39.012;-7.064;2022-10-17T00:38:44;98456.97;;;18.21;70.25
60240;BME280;46102;39.012;-7.064;2022-10-17T00:40:45;98454.63;;;18.23;70.24
60240;BME280;46102;39.012;-7.064;2022-10-17T00:42:49;98456.69;;;18.26;69.93
60240;BME280;46102;39.012;-7.064;2022-10-17T00:45:21;98460.56;;;18.22;70.17
60240;BME280;46102;39.012;-7.064;2022-10-17T00:47:22;98461.00;;;18.24;70.15
60240;BME280;46102;39.012;-7.064;2022-10-17T00:49:25;98462.25;;;18.26;69.82
60240;BME280;46102;39.012;-7.064;2022-10-17T00:51:33;98461.41;;;18.26;69.77
60240;BME280;46102;39.012;-7.064;2022-10-17T00:53:37;98461.41;;;18.26;69.83
60240;BME280;46102;39.012;-7.064;2022-10-17T00:55:48;98453.53;;;18.28;69.61
60240;BME280;46102;39.012;-7.064;2022-10-17T00:57:49;98452.38;;;18.29;69.38
60240;BME280;46102;39.012;-7.064;2022-10-17T00:59:55;98453.94;;;18.30;69.34
60240;BME280;46102;39.012;-7.064;2022-10-17T01:02:03;98449.16;;;18.27;69.17
60240;BME280;46102;39.012;-7.064;2022-10-17T01:04:04;98460.19;;;18.23;69.35
60240;BME280;46102;39.012;-7.064;2022-10-17T01:06:05;98458.59;;;18.22;69.53
60240;BME280;46102;39.012;-7.064;2022-10-17T01:08:06;98457.38;;;18.20;69.69
60240;BME280;46102;39.012;-7.064;2022-10-17T01:10:08;98458.53;;;18.19;69.70
60240;BME280;46102;39.012;-7.064;2022-10-17T01:16:51;98465.25;;;18.18;69.83
60240;BME280;46102;39.012;-7.064;2022-10-17T01:19:09;98469.94;;;18.14;70.31
60240;BME280;46102;39.012;-7.064;2022-10-17T01:21:29;98487.78;;;18.13;70.54
60240;BME280;46102;39.012;-7.064;2022-10-17T01:26:08;98509.69;;;18.18;71.03
60240;BME280;46102;39.012;-7.064;2022-10-17T01:28:30;98509.84;;;18.05;70.99
60240;BME280;46102;39.012;-7.064;2022-10-17T01:30:55;98510.66;;;18.06;71.94
60240;BME280;46102;39.012;-7.064;2022-10-17T01:33:08;98503.47;;;18.05;72.24
60240;BME280;46102;39.012;-7.064;2022-10-17T01:35:30;98502.47;;;17.94;72.88
60240;BME280;46102;39.012;-7.064;2022-10-17T01:39:56;98513.53;;;17.90;73.69
60240;BME280;46102;39.012;-7.064;2022-10-17T01:42:06;98511.91;;;17.89;74.00
60240;BME280;46102;39.012;-7.064;2022-10-17T01:46:36;98518.91;;;17.83;74.35
60240;BME280;46102;39.012;-7.064;2022-10-17T01:48:39;98513.56;;;17.74;74.65
60240;BME280;46102;39.012;-7.064;2022-10-17T01:50:47;98511.59;;;17.75;74.78
60240;BME280;46102;39.012;-7.064;2022-10-17T01:52:53;98504.09;;;17.75;74.86
60240;BME280;46102;39.012;-7.064;2022-10-17T01:55:02;98504.16;;;17.79;74.51
60240;BME280;46102;39.012;-7.064;2022-10-17T01:57:09;98508.44;;;17.76;74.45
60240;BME280;46102;39.012;-7.064;2022-10-17T01:59:15;98505.31;;;17.78;74.29
60240;BME280;46102;39.012;-7.064;2022-10-17T02:01:18;98507.66;;;17.76;74.42
60240;BME280;46102;39.012;-7.064;2022-10-17T02:03:20;98509.63;;;17.75;74.43
60240;BME280;46102;39.012;-7.064;2022-10-17T02:05:25;98512.41;;;17.75;74.45
60240;BME280;46102;39.012;-7.064;2022-10-17T02:07:27;98514.75;;;17.73;74.43
60240;BME280;46102;39.012;-7.064;2022-10-17T02:09:28;98510.72;;;17.71;74.38
60240;BME280;46102;39.012;-7.064;2022-10-17T02:11:31;98504.88;;;17.76;74.25
60240;BME280;46102;39.012;-7.064;2022-10-17T02:29:57;98465.97;;;17.92;73.16
60240;BME280;46102;39.012;-7.064;2022-10-17T02:32:14;98456.09;;;17.94;72.89
60240;BME280;46102;39.012;-7.064;2022-10-17T02:34:25;98465.66;;;17.97;72.64
60240;BME280;46102;39.012;-7.064;2022-10-17T02:36:37;98461.66;;;17.94;72.56
60240;BME280;46102;39.012;-7.064;2022-10-17T02:38:39;98466.41;;;17.94;72.74
60240;BME280;46102;39.012;-7.064;2022-10-17T02:40:41;98465.25;;;17.95;72.74
60240;BME280;46102;39.012;-7.064;2022-10-17T02:42:44;98478.38;;;17.98;72.54
60240;BME280;46102;39.012;-7.064;2022-10-17T02:44:46;98476.84;;;18.00;72.46
60240;BME280;46102;39.012;-7.064;2022-10-17T02:46:54;98471.28;;;18.00;72.44
60240;BME280;46102;39.012;-7.064;2022-10-17T02:49:02;98476.91;;;18.04;72.43
60240;BME280;46102;39.012;-7.064;2022-10-17T02:51:15;98477.34;;;18.06;72.24
60240;BME280;46102;39.012;-7.064;2022-10-17T02:53:29;98476.25;;;18.10;72.13
60240;BME280;46102;39.012;-7.064;2022-10-17T02:55:39;98477.47;;;18.13;71.90
60240;BME280;46102;39.012;-7.064;2022-10-17T02:57:45;98477.91;;;18.15;71.82
60240;BME280;46102;39.012;-7.064;2022-10-17T02:59:49;98471.16;;;18.16;71.68
60240;BME280;46102;39.012;-7.064;2022-10-17T03:01:50;98473.59;;;18.18;71.61
60240;BME280;46102;39.012;-7.064;2022-10-17T03:04:05;98473.19;;;18.19;71.40
60240;BME280;46102;39.012;-7.064;2022-10-17T03:06:07;98464.50;;;18.21;71.33
60240;BME280;46102;39.012;-7.064;2022-10-17T03:08:07;98461.72;;;18.21;71.31
60240;BME280;46102;39.012;-7.064;2022-10-17T03:10:08;98462.91;;;18.20;71.51
60240;BME280;46102;39.012;-7.064;2022-10-17T03:12:10;98456.97;;;18.21;71.42
60240;BME280;46102;39.012;-7.064;2022-10-17T03:14:10;98462.09;;;18.19;71.44
60240;BME280;46102;39.012;-7.064;2022-10-17T03:16:11;98467.66;;;18.19;71.42
60240;BME280;46102;39.012;-7.064;2022-10-17T03:18:12;98462.91;;;18.20;71.40
60240;BME280;46102;39.012;-7.064;2022-10-17T03:20:13;98464.50;;;18.21;71.39
60240;BME280;46102;39.012;-7.064;2022-10-17T03:22:14;98465.31;;;18.21;71.09
60240;BME280;46102;39.012;-7.064;2022-10-17T03:24:17;98453.03;;;18.22;71.06
60240;BME280;46102;39.012;-7.064;2022-10-17T03:26:18;98456.19;;;18.21;70.90
60240;BME280;46102;39.012;-7.064;2022-10-17T03:28:19;98448.22;;;18.19;70.74
60240;BME280;46102;39.012;-7.064;2022-10-17T03:30:20;98451.38;;;18.18;70.79
60240;BME280;46102;39.012;-7.064;2022-10-17T03:32:20;98441.06;;;18.18;70.53
60240;BME280;46102;39.012;-7.064;2022-10-17T03:34:22;98437.09;;;18.19;70.26
60240;BME280;46102;39.012;-7.064;2022-10-17T03:36:22;98438.72;;;18.20;70.13
60240;BME280;46102;39.012;-7.064;2022-10-17T03:38:24;98443.91;;;18.22;69.79
60240;BME280;46102;39.012;-7.064;2022-10-17T03:40:26;98451.06;;;18.23;69.08
60240;BME280;46102;39.012;-7.064;2022-10-17T03:42:28;98454.19;;;18.21;68.97
60240;BME280;46102;39.012;-7.064;2022-10-17T03:44:28;98451.84;;;18.23;68.70
60240;BME280;46102;39.012;-7.064;2022-10-17T03:46:29;98454.63;;;18.23;68.40
60240;BME280;46102;39.012;-7.064;2022-10-17T03:48:32;98444.72;;;18.22;68.58
60240;BME280;46102;39.012;-7.064;2022-10-17T03:50:33;98435.63;;;18.25;68.07
60240;BME280;46102;39.012;-7.064;2022-10-17T03:52:34;98447.13;;;18.24;68.02
60240;BME280;46102;39.012;-7.064;2022-10-17T03:54:36;98449.84;;;18.20;68.19
60240;BME280;46102;39.012;-7.064;2022-10-17T03:56:37;98444.28;;;18.20;67.89
60240;BME280;46102;39.012;-7.064;2022-10-17T03:58:42;98447.84;;;18.21;67.54
60240;BME280;46102;39.012;-7.064;2022-10-17T04:00:44;98454.59;;;18.20;67.44
60240;BME280;46102;39.012;-7.064;2022-10-17T04:02:45;98449.84;;;18.20;67.41
60240;BME280;46102;39.012;-7.064;2022-10-17T04:04:51;98452.97;;;18.19;67.53
60240;BME280;46102;39.012;-7.064;2022-10-17T04:06:52;98454.59;;;18.20;67.44
60240;BME280;46102;39.012;-7.064;2022-10-17T04:08:53;98458.16;;;18.20;67.51
60240;BME280;46102;39.012;-7.064;2022-10-17T04:10:59;98450.63;;;18.21;67.47
60240;BME280;46102;39.012;-7.064;2022-10-17T04:13:00;98450.28;;;18.22;67.63
60240;BME280;46102;39.012;-7.064;2022-10-17T04:15:01;98446.69;;;18.22;67.67
60240;BME280;46102;39.012;-7.064;2022-10-17T04:17:02;98455.03;;;18.22;67.74
60240;BME280;46102;39.012;-7.064;2022-10-17T04:19:04;98449.03;;;18.20;68.04
60240;BME280;46102;39.012;-7.064;2022-10-17T04:21:12;98453.72;;;18.16;68.17
60240;BME280;46102;39.012;-7.064;2022-10-17T04:23:14;98459.28;;;18.16;68.29
60240;BME280;46102;39.012;-7.064;2022-10-17T04:25:19;98452.94;;;18.15;68.56
60240;BME280;46102;39.012;-7.064;2022-10-17T04:27:22;98458.84;;;18.14;68.87
60240;BME280;46102;39.012;-7.064;2022-10-17T04:29:23;98463.59;;;18.13;68.96
60240;BME280;46102;39.012;-7.064;2022-10-17T04:31:27;98464.31;;;18.10;69.33
60240;BME280;46102;39.012;-7.064;2022-10-17T04:33:40;98465.06;;;18.07;69.48
60240;BME280;46102;39.012;-7.064;2022-10-17T04:35:41;98470.63;;;18.07;69.65
60240;BME280;46102;39.012;-7.064;2022-10-17T04:37:42;98476.53;;;18.05;69.91
60240;BME280;46102;39.012;-7.064;2022-10-17T04:39:50;98477.63;;;18.01;70.17
60240;BME280;46102;39.012;-7.064;2022-10-17T04:41:50;98487.13;;;18.00;70.41
60240;BME280;46102;39.012;-7.064;2022-10-17T04:43:51;98476.75;;;17.97;70.56
60240;BME280;46102;39.012;-7.064;2022-10-17T04:45:56;98480.28;;;17.94;70.65
60240;BME280;46102;39.012;-7.064;2022-10-17T04:47:57;98492.91;;;17.91;70.92
60240;BME280;46102;39.012;-7.064;2022-10-17T04:49:58;98492.47;;;17.89;70.92
60240;BME280;46102;39.012;-7.064;2022-10-17T04:51:58;98488.13;;;17.88;71.00
60240;BME280;46102;39.012;-7.064;2022-10-17T04:54:05;98486.06;;;17.85;71.10
60240;BME280;46102;39.012;-7.064;2022-10-17T04:56:11;98493.94;;;17.83;71.37
60240;BME280;46102;39.012;-7.064;2022-10-17T04:58:13;98497.91;;;17.82;71.30
60240;BME280;46102;39.012;-7.064;2022-10-17T05:00:14;98499.03;;;17.81;71.55
60240;BME280;46102;39.012;-7.064;2022-10-17T05:02:26;98498.53;;;17.75;72.02
60240;BME280;46102;39.012;-7.064;2022-10-17T05:04:26;98504.00;;;17.72;72.28
60240;BME280;46102;39.012;-7.064;2022-10-17T05:06:27;98502.31;;;17.67;72.72
60240;BME280;46102;39.012;-7.064;2022-10-17T05:08:46;98505.47;;;17.65;72.85
60240;BME280;46102;39.012;-7.064;2022-10-17T05:10:47;98510.59;;;17.63;73.13
60240;BME280;46102;39.012;-7.064;2022-10-17T05:12:48;98512.53;;;17.63;73.33
60240;BME280;46102;39.012;-7.064;2022-10-17T05:14:51;98508.16;;;17.62;73.45
60240;BME280;46102;39.012;-7.064;2022-10-17T05:16:52;98517.28;;;17.62;73.32
60240;BME280;46102;39.012;-7.064;2022-10-17T05:18:55;98516.84;;;17.60;73.44
60240;BME280;46102;39.012;-7.064;2022-10-17T05:20:56;98518.03;;;17.59;73.53
60240;BME280;46102;39.012;-7.064;2022-10-17T05:22:58;98527.16;;;17.60;73.89
60240;BME280;46102;39.012;-7.064;2022-10-17T05:25:03;98524.72;;;17.58;74.00
60240;BME280;46102;39.012;-7.064;2022-10-17T05:27:04;98520.38;;;17.57;74.07
60240;BME280;46102;39.012;-7.064;2022-10-17T05:29:05;98517.22;;;17.59;74.00
60240;BME280;46102;39.012;-7.064;2022-10-17T05:31:10;98525.16;;;17.60;74.10
60240;BME280;46102;39.012;-7.064;2022-10-17T05:33:11;98526.78;;;17.61;74.00
60240;BME280;46102;39.012;-7.064;2022-10-17T05:35:12;98532.34;;;17.61;73.95
60240;BME280;46102;39.012;-7.064;2022-10-17T05:37:13;98535.56;;;17.63;73.91
60240;BME280;46102;39.012;-7.064;2022-10-17T05:39:16;98536.34;;;17.64;73.73
60240;BME280;46102;39.012;-7.064;2022-10-17T05:41:19;98538.31;;;17.63;73.74
60240;BME280;46102;39.012;-7.064;2022-10-17T05:43:21;98533.56;;;17.64;73.82
60240;BME280;46102;39.012;-7.064;2022-10-17T05:45:22;98542.69;;;17.64;73.80
60240;BME280;46102;39.012;-7.064;2022-10-17T05:47:22;98547.44;;;17.64;73.74
60240;BME280;46102;39.012;-7.064;2022-10-17T05:49:23;98537.50;;;17.63;73.67
60240;BME280;46102;39.012;-7.064;2022-10-17T05:51:24;98540.28;;;17.63;73.45
60240;BME280;46102;39.012;-7.064;2022-10-17T05:53:28;98528.78;;;17.61;73.58
60240;BME280;46102;39.012;-7.064;2022-10-17T05:55:29;98550.97;;;17.61;73.39
60240;BME280;46102;39.012;-7.064;2022-10-17T05:57:31;98538.88;;;17.53;73.74
60240;BME280;46102;39.012;-7.064;2022-10-17T05:59:33;98549.53;;;17.51;73.91
60240;BME280;46102;39.012;-7.064;2022-10-17T06:01:44;98539.97;;;17.48;74.06
60240;BME280;46102;39.012;-7.064;2022-10-17T06:03:45;98550.28;;;17.48;74.08
60240;BME280;46102;39.012;-7.064;2022-10-17T06:05:45;98549.41;;;17.44;74.18
60240;BME280;46102;39.012;-7.064;2022-10-17T06:07:47;98547.34;;;17.41;74.33
60240;BME280;46102;39.012;-7.064;2022-10-17T06:09:50;98561.47;;;17.36;74.37
60240;BME280;46102;39.012;-7.064;2022-10-17T06:11:51;98555.88;;;17.32;74.55
60240;BME280;46102;39.012;-7.064;2022-10-17T06:13:52;98555.06;;;17.32;74.41
60240;BME280;46102;39.012;-7.064;2022-10-17T06:15:57;98553.91;;;17.33;74.42
60240;BME280;46102;39.012;-7.064;2022-10-17T06:17:58;98558.25;;;17.34;74.33
60240;BME280;46102;39.012;-7.064;2022-10-17T06:19:59;98560.25;;;17.33;74.36
60240;BME280;46102;39.012;-7.064;2022-10-17T06:22:00;98572.13;;;17.34;74.56
60240;BME280;46102;39.012;-7.064;2022-10-17T06:24:02;98570.63;;;17.36;74.49
60240;BME280;46102;39.012;-7.064;2022-10-17T06:26:06;98564.25;;;17.36;74.35
60240;BME280;46102;39.012;-7.064;2022-10-17T06:28:07;98564.63;;;17.34;74.29
60240;BME280;46102;39.012;-7.064;2022-10-17T06:30:08;98565.44;;;17.35;74.39
60240;BME280;46102;39.012;-7.064;2022-10-17T06:32:09;98569.34;;;17.34;74.21
60240;BME280;46102;39.012;-7.064;2022-10-17T06:34:10;98574.91;;;17.34;74.45
60240;BME280;46102;39.012;-7.064;2022-10-17T06:36:13;98569.00;;;17.35;74.49
60240;BME280;46102;39.012;-7.064;2022-10-17T06:38:14;98571.78;;;17.35;74.54
60240;BME280;46102;39.012;-7.064;2022-10-17T06:40:15;98569.34;;;17.34;74.60
60240;BME280;46102;39.012;-7.064;2022-10-17T06:42:16;98565.34;;;17.31;74.83
60240;BME280;46102;39.012;-7.064;2022-10-17T06:44:21;98564.53;;;17.31;74.90
60240;BME280;46102;39.012;-7.064;2022-10-17T06:46:43;98568.06;;;17.27;74.76
60240;BME280;46102;39.012;-7.064;2022-10-17T06:48:44;98568.41;;;17.26;75.18
60240;BME280;46102;39.012;-7.064;2022-10-17T06:51:02;98564.38;;;17.23;75.11
60240;BME280;46102;39.012;-7.064;2022-10-17T06:53:04;98555.28;;;17.23;75.16
60240;BME280;46102;39.012;-7.064;2022-10-17T06:55:23;98561.16;;;17.21;75.25
60240;BME280;46102;39.012;-7.064;2022-10-17T06:57:43;98564.38;;;17.23;75.33
60240;BME280;46102;39.012;-7.064;2022-10-17T06:59:59;98571.72;;;17.32;75.34
60240;BME280;46102;39.012;-7.064;2022-10-17T07:02:09;98573.63;;;17.47;75.00
60240;BME280;46102;39.012;-7.064;2022-10-17T07:04:10;98565.25;;;17.63;74.56
60240;BME280;46102;39.012;-7.064;2022-10-17T07:06:11;98569.56;;;17.80;74.33
60240;BME280;46102;39.012;-7.064;2022-10-17T07:08:14;98571.50;;;17.95;73.71
60240;BME280;46102;39.012;-7.064;2022-10-17T07:10:16;98576.59;;;18.13;73.15
60240;BME280;46102;39.012;-7.064;2022-10-17T07:12:17;98574.97;;;18.31;72.49
60240;BME280;46102;39.012;-7.064;2022-10-17T07:14:19;98571.69;;;18.48;71.87
60240;BME280;46102;39.012;-7.064;2022-10-17T07:16:20;98578.69;;;18.62;71.24
60240;BME280;46102;39.012;-7.064;2022-10-17T07:18:25;98577.78;;;18.77;70.55
60240;BME280;46102;39.012;-7.064;2022-10-17T07:20:26;98589.19;;;18.95;69.98
60240;BME280;46102;39.012;-7.064;2022-10-17T07:22:27;98592.34;;;19.17;69.39
60240;BME280;46102;39.012;-7.064;2022-10-17T07:24:31;98589.75;;;19.31;68.58
60240;BME280;46102;39.012;-7.064;2022-10-17T07:26:40;98598.16;;;19.34;68.20
60240;BME280;46102;39.012;-7.064;2022-10-17T07:28:44;98596.19;;;19.35;67.99
60240;BME280;46102;39.012;-7.064;2022-10-17T07:31:08;98595.41;;;19.38;68.01
60240;BME280;46102;39.012;-7.064;2022-10-17T07:33:10;98606.59;;;19.42;67.83
60240;BME280;46102;39.012;-7.064;2022-10-17T07:35:11;98600.72;;;19.47;67.76
60240;BME280;46102;39.012;-7.064;2022-10-17T07:37:14;98606.38;;;19.54;67.59
60240;BME280;46102;39.012;-7.064;2022-10-17T07:39:20;98602.53;;;19.62;67.29
60240;BME280;46102;39.012;-7.064;2022-10-17T07:41:21;98605.09;;;19.74;67.09
60240;BME280;46102;39.012;-7.064;2022-10-17T07:43:24;98614.38;;;19.86;66.73
60240;BME280;46102;39.012;-7.064;2022-10-17T07:45:27;98611.75;;;19.96;66.60
60240;BME280;46102;39.012;-7.064;2022-10-17T07:47:28;98619.03;;;20.05;66.38
60240;BME280;46102;39.012;-7.064;2022-10-17T07:49:30;98617.09;;;20.09;66.32
60240;BME280;46102;39.012;-7.064;2022-10-17T07:51:31;98615.81;;;20.03;65.98
60240;BME280;46102;39.012;-7.064;2022-10-17T07:53:35;98617.72;;;19.95;66.47
60240;BME280;46102;39.012;-7.064;2022-10-17T07:55:38;98624.78;;;19.89;67.07
60240;BME280;46102;39.012;-7.064;2022-10-17T07:57:39;98628.00;;;19.91;67.44
60240;BME280;46102;39.012;-7.064;2022-10-17T07:59:40;98625.72;;;20.00;67.11
60240;BME280;46102;39.012;-7.064;2022-10-17T08:01:41;98629.09;;;20.16;66.63
60240;BME280;46102;39.012;-7.064;2022-10-17T08:03:43;98635.69;;;20.35;66.00
60240;BME280;46102;39.012;-7.064;2022-10-17T08:05:44;98628.72;;;20.55;65.73
60240;BME280;46102;39.012;-7.064;2022-10-17T08:07:45;98628.50;;;20.68;64.89
60240;BME280;46102;39.012;-7.064;2022-10-17T08:09:46;98630.09;;;20.69;65.00
60240;BME280;46102;39.012;-7.064;2022-10-17T08:11:46;98632.81;;;20.62;64.74
60240;BME280;46102;39.012;-7.064;2022-10-17T08:13:48;98635.03;;;20.49;65.06
60240;BME280;46102;39.012;-7.064;2022-10-17T08:15:49;98641.25;;;20.35;65.54
60240;BME280;46102;39.012;-7.064;2022-10-17T08:17:49;98645.09;;;20.23;65.67
60240;BME280;46102;39.012;-7.064;2022-10-17T08:19:50;98652.53;;;20.12;65.77
60240;BME280;46102;39.012;-7.064;2022-10-17T08:21:51;98655.16;;;20.01;66.17
60240;BME280;46102;39.012;-7.064;2022-10-17T08:23:53;98651.16;;;19.99;66.28
60240;BME280;46102;39.012;-7.064;2022-10-17T08:25:58;98653.94;;;19.99;66.20
60240;BME280;46102;39.012;-7.064;2022-10-17T08:27:59;98664.31;;;20.02;66.43
60240;BME280;46102;39.012;-7.064;2022-10-17T08:30:00;98664.00;;;20.07;66.30
60240;BME280;46102;39.012;-7.064;2022-10-17T08:32:01;98662.88;;;20.11;66.26
60240;BME280;46102;39.012;-7.064;2022-10-17T08:34:01;98676.06;;;20.18;66.04
60240;BME280;46102;39.012;-7.064;2022-10-17T08:36:03;98681.34;;;20.27;65.70
60240;BME280;46102;39.012;-7.064;2022-10-17T08:38:04;98683.66;;;20.55;65.60
60240;BME280;46102;39.012;-7.064;2022-10-17T08:40:08;98684.47;;;20.89;64.51
60240;BME280;46102;39.012;-7.064;2022-10-17T08:44:56;98686.72;;;21.62;61.86
60240;BME280;46102;39.012;-7.064;2022-10-17T08:47:02;98692.09;;;21.92;60.68
60240;BME280;46102;39.012;-7.064;2022-10-17T08:49:10;98689.78;;;22.09;59.64
60240;BME280;46102;39.012;-7.064;2022-10-17T08:51:16;98706.19;;;22.17;58.30
60240;BME280;46102;39.012;-7.064;2022-10-17T08:53:41;98703.94;;;22.41;57.50
60240;BME280;46102;39.012;-7.064;2022-10-17T08:55:47;98717.16;;;22.51;56.58
60240;BME280;46102;39.012;-7.064;2022-10-17T08:57:48;98717.13;;;22.44;56.46
60240;BME280;46102;39.012;-7.064;2022-10-17T08:59:51;98717.91;;;22.41;56.97
60240;BME280;46102;39.012;-7.064;2022-10-17T09:02:22;98719.97;;;22.55;56.76
60240;BME280;46102;39.012;-7.064;2022-10-17T09:18:15;98743.34;;;24.06;52.84
60240;BME280;46102;39.012;-7.064;2022-10-17T09:20:31;98734.09;;;24.20;52.12
60240;BME280;46102;39.012;-7.064;2022-10-17T09:22:46;98740.88;;;24.37;51.93
60240;BME280;46102;39.012;-7.064;2022-10-17T09:24:53;98740.84;;;24.47;50.43
60240;BME280;46102;39.012;-7.064;2022-10-17T09:26:55;98744.88;;;24.50;50.40
60240;BME280;46102;39.012;-7.064;2022-10-17T09:28:58;98745.63;;;24.54;50.07
60240;BME280;46102;39.012;-7.064;2022-10-17T09:31:03;98743.22;;;24.60;49.68
60240;BME280;46102;39.012;-7.064;2022-10-17T09:33:12;98737.50;;;24.81;49.29
60240;BME280;46102;39.012;-7.064;2022-10-17T09:35:14;98743.44;;;24.94;48.64
60240;BME280;46102;39.012;-7.064;2022-10-17T09:37:16;98743.72;;;25.14;48.22
60240;BME280;46102;39.012;-7.064;2022-10-17T09:39:19;98751.59;;;25.41;47.55
60240;BME280;46102;39.012;-7.064;2022-10-17T09:41:30;98746.78;;;25.41;46.80
60240;BME280;46102;39.012;-7.064;2022-10-17T09:43:33;98750.81;;;25.40;45.40
60240;BME280;46102;39.012;-7.064;2022-10-17T09:45:40;98753.16;;;25.49;45.27
60240;BME280;46102;39.012;-7.064;2022-10-17T09:49:52;98761.38;;;25.74;45.32
60240;BME280;46102;39.012;-7.064;2022-10-17T09:51:53;98751.38;;;25.69;45.91
60240;BME280;46102;39.012;-7.064;2022-10-17T09:54:02;98753.34;;;25.72;45.61
60240;BME280;46102;39.012;-7.064;2022-10-17T09:56:09;98750.41;;;25.90;45.81
60240;BME280;46102;39.012;-7.064;2022-10-17T09:58:12;98752.19;;;26.15;44.17
60240;BME280;46102;39.012;-7.064;2022-10-17T10:00:21;98748.59;;;26.11;43.46
60240;BME280;46102;39.012;-7.064;2022-10-17T10:02:23;98755.19;;;25.93;43.65
60240;BME280;46102;39.012;-7.064;2022-10-17T10:04:24;98758.94;;;25.76;44.07
60240;BME280;46102;39.012;-7.064;2022-10-17T10:06:26;98759.22;;;25.92;43.09
60240;BME280;46102;39.012;-7.064;2022-10-17T10:08:29;98765.09;;;25.60;43.61
60240;BME280;46102;39.012;-7.064;2022-10-17T10:10:31;98769.44;;;25.68;43.25
60240;BME280;46102;39.012;-7.064;2022-10-17T10:12:37;98762.66;;;25.62;43.36
60240;BME280;46102;39.012;-7.064;2022-10-17T10:14:38;98768.16;;;25.17;44.35
60240;BME280;46102;39.012;-7.064;2022-10-17T10:16:42;98769.81;;;25.11;45.09
60240;BME280;46102;39.012;-7.064;2022-10-17T10:18:44;98771.31;;;25.33;44.68
60240;BME280;46102;39.012;-7.064;2022-10-17T10:20:45;98772.00;;;25.48;44.60
60240;BME280;46102;39.012;-7.064;2022-10-17T10:23:03;98772.72;;;25.60;44.45
60240;BME280;46102;39.012;-7.064;2022-10-17T10:25:14;98775.31;;;25.36;43.92
60240;BME280;46102;39.012;-7.064;2022-10-17T10:27:16;98782.75;;;25.61;43.98
60240;BME280;46102;39.012;-7.064;2022-10-17T10:31:27;98790.53;;;25.39;44.38
60240;BME280;46102;39.012;-7.064;2022-10-17T10:33:29;98793.53;;;25.66;44.24
60240;BME280;46102;39.012;-7.064;2022-10-17T10:35:34;98793.38;;;25.84;43.67
60240;BME280;46102;39.012;-7.064;2022-10-17T10:37:41;98796.66;;;25.79;44.17
60240;BME280;46102;39.012;-7.064;2022-10-17T10:39:47;98790.13;;;25.33;44.74
60240;BME280;46102;39.012;-7.064;2022-10-17T10:41:49;98793.72;;;25.41;44.91
60240;BME280;46102;39.012;-7.064;2022-10-17T10:43:50;98796.22;;;25.87;44.01
60240;BME280;46102;39.012;-7.064;2022-10-17T10:45:53;98794.13;;;25.95;43.90
60240;BME280;46102;39.012;-7.064;2022-10-17T10:47:58;98799.69;;;26.02;43.01
60240;BME280;46102;39.012;-7.064;2022-10-17T10:52:26;98799.34;;;25.96;42.87
60240;BME280;46102;39.012;-7.064;2022-10-17T10:54:36;98802.56;;;25.95;43.71
60240;BME280;46102;39.012;-7.064;2022-10-17T10:56:41;98809.16;;;25.70;44.28
60240;BME280;46102;39.012;-7.064;2022-10-17T10:59:06;98811.03;;;25.84;43.37
60240;BME280;46102;39.012;-7.064;2022-10-17T11:01:25;98808.78;;;26.17;43.32
60240;BME280;46102;39.012;-7.064;2022-10-17T11:03:34;98799.50;;;26.20;42.70
60240;BME280;46102;39.012;-7.064;2022-10-17T11:07:42;98796.50;;;26.79;41.45
60240;BME280;46102;39.012;-7.064;2022-10-17T11:09:57;98798.06;;;26.81;41.73
60240;BME280;46102;39.012;-7.064;2022-10-17T11:12:17;98800.09;;;26.80;40.79
60240;BME280;46102;39.012;-7.064;2022-10-17T11:14:42;98796.13;;;26.74;39.70
60240;BME280;46102;39.012;-7.064;2022-10-17T11:23:47;98780.84;;;27.36;37.85
60240;BME280;46102;39.012;-7.064;2022-10-17T11:25:51;98783.50;;;27.47;37.25
60240;BME280;46102;39.012;-7.064;2022-10-17T11:27:53;98785.22;;;27.41;37.61
60240;BME280;46102;39.012;-7.064;2022-10-17T11:29:55;98782.53;;;27.57;37.23
60240;BME280;46102;39.012;-7.064;2022-10-17T11:32:00;98788.91;;;27.61;38.18
60240;BME280;46102;39.012;-7.064;2022-10-17T11:34:10;98782.28;;;27.72;37.52
60240;BME280;46102;39.012;-7.064;2022-10-17T11:36:14;98791.53;;;27.99;36.73
60240;BME280;46102;39.012;-7.064;2022-10-17T11:40:38;98790.81;;;27.95;37.41
60240;BME280;46102;39.012;-7.064;2022-10-17T11:42:53;98779.91;;;27.97;37.64
60240;BME280;46102;39.012;-7.064;2022-10-17T11:45:07;98793.16;;;27.15;38.41
60240;BME280;46102;39.012;-7.064;2022-10-17T11:47:46;98788.22;;;26.96;39.30
60240;BME280;46102;39.012;-7.064;2022-10-17T11:49:54;98777.13;;;27.43;38.60
60240;BME280;46102;39.012;-7.064;2022-10-17T11:52:27;98791.47;;;27.52;38.37
60240;BME280;46102;39.012;-7.064;2022-10-17T11:54:41;98773.81;;;27.48;38.50